Time;durP1;ratioP1;P1;durP2;ratioP2;P2;SDS_P1;SDS_P2;PMS_P1;PMS_P2;Temp;Humidity;BMP_temperature;BMP_pressure;BME280_temperature;BME280_humidity;BME280_pressure;Samples;Min_cycle;Max_cycle;Signal;HPM_P1;HPM_P2
2022/12/25 00:00:19;;;;;;;;;;;4.30;99.90;;;;;;5073190;28;20291;-77
2022/12/25 00:02:44;;;;;;;;;;;4.30;99.90;;;;;;5081826;28;19999;-78
2022/12/25 00:05:10;;;;;;;;;;;4.30;99.90;;;;;;5079030;28;19924;-78
2022/12/25 00:07:35;;;;;;;;;;;4.40;99.90;;;;;;5059942;28;19931;-77
2022/12/25 00:10:01;;;;;;;;;;;4.40;99.90;;;;;;5066720;28;19960;-77
2022/12/25 00:12:26;;;;;;;;;;;4.60;99.90;;;;;;5072299;28;20391;-76
2022/12/25 00:14:52;;;;;;;;;;;4.60;99.90;;;;;;5071292;28;19936;-77
2022/12/25 00:17:17;;;;;;;;;;;4.60;99.90;;;;;;5067694;28;19970;-77
2022/12/25 00:19:43;;;;;;;;;;;4.60;99.90;;;;;;5068765;28;19935;-77
2022/12/25 00:22:08;;;;;;;;;;;4.60;99.90;;;;;;5063995;28;19958;-77
2022/12/25 00:24:34;;;;;;;;;;;4.70;99.90;;;;;;5068809;28;19928;-77
2022/12/25 00:27:00;;;;;;;;;;;4.70;99.90;;;;;;5069713;28;20006;-77
2022/12/25 00:29:25;;;;;;;;;;;4.80;99.90;;;;;;5052196;28;19933;-78
2022/12/25 00:31:51;;;;;;;;;;;4.80;99.90;;;;;;5072510;28;20019;-77
2022/12/25 00:34:16;;;;;;;;;;;4.80;99.90;;;;;;5069121;28;19932;-77
2022/12/25 00:36:42;;;;;;;;;;;4.80;99.90;;;;;;5071119;28;20011;-77
2022/12/25 00:39:08;;;;;;;;;;;4.90;99.90;;;;;;5065295;28;19940;-77
2022/12/25 00:44:17;;;;;;;;;;;5.00;99.90;;;;;;5068726;28;19933;-77
2022/12/25 00:46:43;;;;;;;;;;;5.20;99.90;;;;;;5066328;28;20453;-77
2022/12/25 00:49:09;;;;;;;;;;;5.20;99.90;;;;;;5069661;28;19932;-77
2022/12/25 00:51:34;;;;;;;;;;;5.20;99.90;;;;;;5052022;28;19964;-77
2022/12/25 00:54:00;;;;;;;;;;;5.30;99.90;;;;;;5067791;28;20020;-77
2022/12/25 00:56:25;;;;;;;;;;;5.30;99.90;;;;;;5067611;28;20489;-77
2022/12/25 00:58:52;;;;;;;;;;;5.20;99.90;;;;;;5066656;28;19925;-77
2022/12/25 01:01:17;;;;;;;;;;;5.30;99.90;;;;;;5069595;28;19924;-77
2022/12/25 01:03:43;;;;;;;;;;;5.20;99.90;;;;;;5070271;28;19939;-77
2022/12/25 01:06:10;;;;;;;;;;;5.20;99.90;;;;;;5066976;28;20011;-77
2022/12/25 01:08:36;;;;;;;;;;;5.10;99.90;;;;;;5070351;28;19924;-77
2022/12/25 01:11:04;;;;;;;;;;;5.00;99.90;;;;;;5069648;28;19924;-77
2022/12/25 01:13:30;;;;;;;;;;;5.00;99.90;;;;;;5068595;28;19928;-77
2022/12/25 01:15:56;;;;;;;;;;;5.00;99.90;;;;;;5066340;28;20611;-77
2022/12/25 01:18:22;;;;;;;;;;;5.00;99.90;;;;;;5071807;28;19928;-77
2022/12/25 01:20:48;;;;;;;;;;;5.10;99.90;;;;;;5068216;28;19940;-77
2022/12/25 01:23:13;;;;;;;;;;;5.10;99.90;;;;;;5069619;28;19924;-77
2022/12/25 01:25:39;;;;;;;;;;;5.10;99.90;;;;;;5071846;28;20248;-77
2022/12/25 01:28:05;;;;;;;;;;;5.20;99.90;;;;;;5070003;28;19932;-77
2022/12/25 01:30:31;;;;;;;;;;;5.20;99.90;;;;;;5071350;28;19988;-77
2022/12/25 01:32:56;;;;;;;;;;;5.30;99.90;;;;;;5069040;28;19981;-77
2022/12/25 01:35:22;;;;;;;;;;;5.40;99.90;;;;;;5049181;28;19998;-77
2022/12/25 01:37:49;;;;;;;;;;;5.40;99.90;;;;;;5070635;28;19924;-77
2022/12/25 01:40:14;;;;;;;;;;;5.50;99.90;;;;;;5069721;28;20021;-77
2022/12/25 01:42:40;;;;;;;;;;;5.60;99.90;;;;;;5070743;28;19924;-77
2022/12/25 01:45:24;;;;;;;;;;;5.60;99.90;;;;;;5048845;28;19929;-77
2022/12/25 01:47:50;;;;;;;;;;;5.70;99.90;;;;;;5072039;28;19924;-77
2022/12/25 01:50:16;;;;;;;;;;;5.80;99.90;;;;;;5068564;28;19954;-77
2022/12/25 01:52:41;;;;;;;;;;;5.80;99.90;;;;;;5070882;28;19946;-77
2022/12/25 01:55:08;;;;;;;;;;;5.80;99.90;;;;;;5053106;28;19936;-77
2022/12/25 01:57:36;;;;;;;;;;;5.90;99.90;;;;;;5068373;28;19950;-77
2022/12/25 02:00:03;;;;;;;;;;;5.90;99.90;;;;;;5072297;28;19982;-77
2022/12/25 02:02:28;;;;;;;;;;;6.00;99.90;;;;;;5073946;28;19925;-77
2022/12/25 02:04:57;;;;;;;;;;;5.90;99.90;;;;;;5073799;28;19924;-77
2022/12/25 02:07:24;;;;;;;;;;;6.00;99.90;;;;;;5068270;28;20130;-77
2022/12/25 02:09:50;;;;;;;;;;;6.00;99.90;;;;;;5073006;28;20291;-77
2022/12/25 02:12:18;;;;;;;;;;;6.10;99.90;;;;;;5073296;28;20053;-77
2022/12/25 02:14:45;;;;;;;;;;;6.10;99.90;;;;;;5072933;28;19929;-77
2022/12/25 02:17:30;;;;;;;;;;;6.10;99.90;;;;;;5074570;28;20377;-77
2022/12/25 02:20:04;;;;;;;;;;;6.20;99.90;;;;;;5072323;28;19938;-77
2022/12/25 02:22:30;;;;;;;;;;;6.20;99.90;;;;;;5069036;28;19925;-77
2022/12/25 02:24:58;;;;;;;;;;;6.20;99.90;;;;;;5075675;28;20020;-77
2022/12/25 02:27:27;;;;;;;;;;;6.30;99.90;;;;;;5071040;28;20410;-77
2022/12/25 02:30:02;;;;;;;;;;;6.30;99.90;;;;;;5052370;28;19925;-77
2022/12/25 02:32:29;;;;;;;;;;;6.30;99.90;;;;;;5085559;28;19935;-77
2022/12/25 02:35:11;;;;;;;;;;;6.40;99.90;;;;;;5070593;28;19924;-77
2022/12/25 02:37:39;;;;;;;;;;;6.40;99.90;;;;;;5072445;28;19950;-77
2022/12/25 02:40:19;;;;;;;;;;;6.50;99.90;;;;;;5071512;28;19933;-77
2022/12/25 03:07:31;;;;;;;;;;;6.80;99.90;;;;;;5071008;28;19943;-77
2022/12/25 03:12:52;;;;;;;;;;;6.80;99.90;;;;;;5069934;28;20015;-77
2022/12/25 03:18:04;;;;;;;;;;;6.90;99.90;;;;;;5072621;28;19971;-77
2022/12/25 03:28:46;;;;;;;;;;;6.80;99.90;;;;;;5075423;28;19997;-77
2022/12/25 03:31:31;;;;;;;;;;;6.80;99.90;;;;;;5076368;28;19925;-77
2022/12/25 03:37:22;;;;;;;;;;;6.80;99.90;;;;;;5072218;28;19936;-77
2022/12/25 03:43:35;;;;;;;;;;;6.90;99.90;;;;;;5069633;28;19964;-77
2022/12/25 04:37:45;;;;;;;;;;;7.40;99.90;;;;;;5073837;28;19925;-77
2022/12/25 04:40:10;;;;;;;;;;;7.50;99.90;;;;;;5070681;28;19931;-77
2022/12/25 04:42:36;;;;;;;;;;;7.50;99.90;;;;;;5071083;28;19935;-77
2022/12/25 04:45:01;;;;;;;;;;;7.50;99.90;;;;;;5070659;28;19947;-77
2022/12/25 04:47:27;;;;;;;;;;;7.60;99.90;;;;;;5071258;28;20417;-77
2022/12/25 04:49:52;;;;;;;;;;;7.60;99.90;;;;;;5070106;28;19990;-77
2022/12/25 04:52:18;;;;;;;;;;;7.60;99.90;;;;;;5073126;28;19935;-77
2022/12/25 04:54:44;;;;;;;;;;;7.60;99.90;;;;;;5071456;28;19946;-77
2022/12/25 04:57:09;;;;;;;;;;;7.70;99.90;;;;;;5049999;28;19935;-77
2022/12/25 04:59:35;;;;;;;;;;;7.70;99.90;;;;;;5067288;28;19972;-76
2022/12/25 05:02:00;;;;;;;;;;;7.70;99.90;;;;;;5053514;28;19924;-77
2022/12/25 05:04:26;;;;;;;;;;;7.70;99.90;;;;;;5067517;28;19973;-77
2022/12/25 05:06:51;;;;;;;;;;;7.80;99.90;;;;;;5071780;28;19924;-77
2022/12/25 05:09:17;;;;;;;;;;;7.80;99.90;;;;;;5048990;28;19959;-77
2022/12/25 05:11:42;;;;;;;;;;;7.80;99.90;;;;;;5051569;28;20007;-77
2022/12/25 05:14:08;;;;;;;;;;;7.90;99.90;;;;;;5069167;28;19929;-77
2022/12/25 05:16:33;;;;;;;;;;;7.90;99.90;;;;;;5049217;28;19925;-77
2022/12/25 05:18:59;;;;;;;;;;;7.90;99.90;;;;;;5054682;28;19932;-77
2022/12/25 05:21:25;;;;;;;;;;;7.90;99.90;;;;;;5071398;28;19931;-77
2022/12/25 05:23:51;;;;;;;;;;;8.00;99.90;;;;;;5071484;28;19932;-77
2022/12/25 05:26:18;;;;;;;;;;;8.00;99.90;;;;;;5071545;28;19925;-77
2022/12/25 05:28:44;;;;;;;;;;;8.00;99.90;;;;;;5072461;28;20453;-77
2022/12/25 05:31:10;;;;;;;;;;;8.00;99.90;;;;;;5069006;28;19928;-77
2022/12/25 05:33:36;;;;;;;;;;;8.00;99.90;;;;;;5069667;28;19924;-77
2022/12/25 05:36:06;;;;;;;;;;;8.00;99.90;;;;;;5068482;28;19968;-77
2022/12/25 05:38:32;;;;;;;;;;;8.10;99.90;;;;;;5067935;28;19981;-77
2022/12/25 05:40:57;;;;;;;;;;;8.10;99.90;;;;;;5069960;28;19928;-76
2022/12/25 05:43:23;;;;;;;;;;;8.10;99.90;;;;;;5075436;28;19924;-77
2022/12/25 05:45:49;;;;;;;;;;;8.10;99.90;;;;;;5051938;28;19935;-77
2022/12/25 05:48:14;;;;;;;;;;;8.20;99.90;;;;;;5069305;28;19951;-77
2022/12/25 05:50:40;;;;;;;;;;;8.20;99.90;;;;;;5072266;28;20494;-77
2022/12/25 05:53:06;;;;;;;;;;;8.20;99.90;;;;;;5050563;28;19925;-77
2022/12/25 05:55:33;;;;;;;;;;;8.20;99.90;;;;;;5069652;28;19929;-76
2022/12/25 05:57:59;;;;;;;;;;;8.20;99.90;;;;;;5072250;28;20465;-77
2022/12/25 06:00:25;;;;;;;;;;;8.20;99.90;;;;;;5072074;28;19924;-77
2022/12/25 06:02:51;;;;;;;;;;;8.20;99.90;;;;;;5067999;28;20007;-77
2022/12/25 06:05:16;;;;;;;;;;;8.20;99.90;;;;;;5066211;28;19924;-77
2022/12/25 06:07:42;;;;;;;;;;;8.20;99.90;;;;;;5072234;28;19925;-77
2022/12/25 06:10:07;;;;;;;;;;;8.30;99.90;;;;;;5069127;28;20007;-77
2022/12/25 06:12:33;;;;;;;;;;;8.30;99.90;;;;;;5070106;28;20028;-77
2022/12/25 06:14:58;;;;;;;;;;;8.30;99.90;;;;;;5048954;28;19932;-77
2022/12/25 06:17:25;;;;;;;;;;;8.30;99.90;;;;;;5070543;28;19928;-76
2022/12/25 06:19:50;;;;;;;;;;;8.30;99.90;;;;;;5069017;28;19929;-77
2022/12/25 06:22:16;;;;;;;;;;;8.30;99.90;;;;;;5071447;28;19936;-77
2022/12/25 06:24:41;;;;;;;;;;;8.30;99.90;;;;;;5065995;28;19975;-77
2022/12/25 06:27:07;;;;;;;;;;;8.30;99.90;;;;;;5071133;28;19933;-76
2022/12/25 06:29:33;;;;;;;;;;;8.30;99.90;;;;;;5069191;28;19960;-77
2022/12/25 06:31:58;;;;;;;;;;;8.30;99.90;;;;;;5070763;28;20039;-76
2022/12/25 06:34:24;;;;;;;;;;;8.30;99.90;;;;;;5071657;28;19925;-76
2022/12/25 06:36:49;;;;;;;;;;;8.30;99.90;;;;;;5054416;28;19964;-77
2022/12/25 06:39:15;;;;;;;;;;;8.30;99.90;;;;;;5066345;28;20126;-77
2022/12/25 06:41:41;;;;;;;;;;;8.20;99.90;;;;;;5066072;28;19932;-77
2022/12/25 06:44:07;;;;;;;;;;;8.20;99.90;;;;;;5071833;28;19932;-76
2022/12/25 06:46:33;;;;;;;;;;;8.20;99.90;;;;;;5068104;28;19924;-77
2022/12/25 06:48:59;;;;;;;;;;;8.20;99.90;;;;;;5069952;28;19992;-77
2022/12/25 06:51:26;;;;;;;;;;;8.20;99.90;;;;;;5069404;28;19974;-76
2022/12/25 06:53:52;;;;;;;;;;;8.20;99.90;;;;;;5070879;28;19986;-76
2022/12/25 06:56:18;;;;;;;;;;;8.20;99.90;;;;;;5067712;28;20388;-76
2022/12/25 06:58:45;;;;;;;;;;;8.10;99.90;;;;;;5075990;28;19924;-77
2022/12/25 07:01:19;;;;;;;;;;;8.10;99.90;;;;;;5073291;28;19963;-77
2022/12/25 07:03:46;;;;;;;;;;;8.10;99.90;;;;;;5064869;28;20778;-76
2022/12/25 07:06:12;;;;;;;;;;;8.10;99.90;;;;;;5073257;28;19978;-76
2022/12/25 07:08:37;;;;;;;;;;;8.10;99.90;;;;;;5073362;28;19928;-76
2022/12/25 07:11:03;;;;;;;;;;;8.00;99.90;;;;;;5075035;28;19939;-76
2022/12/25 07:13:28;;;;;;;;;;;8.00;99.90;;;;;;5072978;28;20004;-76
2022/12/25 07:15:55;;;;;;;;;;;8.00;99.90;;;;;;5075954;28;19935;-77
2022/12/25 07:18:21;;;;;;;;;;;8.00;99.90;;;;;;5075664;28;19992;-76
2022/12/25 07:20:46;;;;;;;;;;;8.00;99.90;;;;;;5071799;28;19963;-76
2022/12/25 07:23:12;;;;;;;;;;;8.00;99.90;;;;;;5072799;28;19936;-76
2022/12/25 07:25:37;;;;;;;;;;;8.00;99.90;;;;;;5068735;28;19932;-77
2022/12/25 07:28:03;;;;;;;;;;;8.00;99.90;;;;;;5070646;28;19971;-77
2022/12/25 07:30:28;;;;;;;;;;;7.90;99.90;;;;;;5074437;28;19925;-77
2022/12/25 07:32:54;;;;;;;;;;;7.90;99.90;;;;;;5070109;28;19928;-77
2022/12/25 07:35:19;;;;;;;;;;;7.90;99.90;;;;;;5071351;28;19939;-77
2022/12/25 07:37:45;;;;;;;;;;;7.90;99.90;;;;;;5073996;28;20033;-76
2022/12/25 07:40:11;;;;;;;;;;;7.90;99.90;;;;;;5069799;28;20407;-76
2022/12/25 07:42:37;;;;;;;;;;;7.90;99.90;;;;;;5070105;28;19928;-76
2022/12/25 07:45:03;;;;;;;;;;;7.90;99.90;;;;;;5051567;28;19952;-76
2022/12/25 07:47:28;;;;;;;;;;;7.90;99.90;;;;;;5074582;28;19952;-76
2022/12/25 07:49:54;;;;;;;;;;;7.90;99.90;;;;;;5078060;28;19979;-83
2022/12/25 07:52:20;;;;;;;;;;;7.90;99.90;;;;;;5074682;28;19924;-82
2022/12/25 07:54:45;;;;;;;;;;;7.80;99.90;;;;;;5079335;28;19924;-83
2022/12/25 07:57:11;;;;;;;;;;;7.80;99.90;;;;;;5070655;28;19929;-82
2022/12/25 07:59:36;;;;;;;;;;;7.80;99.90;;;;;;5073868;28;19932;-82
2022/12/25 08:02:02;;;;;;;;;;;7.80;99.90;;;;;;5075656;28;19933;-82
2022/12/25 08:04:27;;;;;;;;;;;7.70;99.90;;;;;;5075775;28;19929;-82
2022/12/25 08:06:53;;;;;;;;;;;7.70;99.90;;;;;;5051298;28;19947;-82
2022/12/25 08:09:18;;;;;;;;;;;7.70;99.90;;;;;;5058526;28;19924;-82
2022/12/25 08:11:45;;;;;;;;;;;7.70;99.90;;;;;;5041911;28;19928;-84
2022/12/25 08:14:11;;;;;;;;;;;7.70;99.90;;;;;;5076267;28;19998;-82
2022/12/25 08:16:40;;;;;;;;;;;7.60;99.90;;;;;;5077881;28;20193;-84
2022/12/25 08:19:06;;;;;;;;;;;7.60;99.90;;;;;;5024742;28;19925;-84
2022/12/25 08:21:32;;;;;;;;;;;7.60;99.90;;;;;;5036844;28;19932;-83
2022/12/25 08:23:58;;;;;;;;;;;7.60;99.90;;;;;;5036622;28;19929;-83
2022/12/25 08:26:23;;;;;;;;;;;7.60;99.90;;;;;;5037206;28;19925;-82
2022/12/25 08:28:49;;;;;;;;;;;7.60;99.90;;;;;;5037423;28;20337;-82
2022/12/25 08:31:22;;;;;;;;;;;7.60;99.90;;;;;;5019044;28;20043;-82
2022/12/25 08:33:48;;;;;;;;;;;7.60;99.90;;;;;;5021429;28;19929;-83
2022/12/25 08:36:14;;;;;;;;;;;7.60;99.90;;;;;;5036944;28;19936;-82
2022/12/25 08:38:40;;;;;;;;;;;7.60;99.90;;;;;;5034969;28;19929;-82
2022/12/25 08:41:06;;;;;;;;;;;7.70;99.90;;;;;;5039278;28;19984;-82
2022/12/25 08:43:31;;;;;;;;;;;7.70;99.90;;;;;;5018222;28;19979;-82
2022/12/25 08:45:57;;;;;;;;;;;7.70;99.90;;;;;;5037708;28;19929;-82
2022/12/25 08:48:22;;;;;;;;;;;7.70;99.90;;;;;;5020620;28;20021;-82
2022/12/25 08:50:49;;;;;;;;;;;7.80;99.90;;;;;;5039100;28;19929;-82
2022/12/25 08:53:15;;;;;;;;;;;7.80;99.90;;;;;;5035270;28;19933;-82
2022/12/25 08:55:40;;;;;;;;;;;7.80;99.90;;;;;;5035889;28;19968;-81
2022/12/25 08:58:06;;;;;;;;;;;7.80;99.90;;;;;;5029114;28;19926;-82
2022/12/25 09:00:32;;;;;;;;;;;7.80;99.90;;;;;;5038399;28;19941;-82
2022/12/25 09:02:57;;;;;;;;;;;7.80;99.90;;;;;;5034594;28;20180;-82
2022/12/25 09:05:23;;;;;;;;;;;7.90;99.90;;;;;;5022855;28;19925;-82
2022/12/25 09:07:48;;;;;;;;;;;7.90;99.90;;;;;;5034662;28;19980;-81
2022/12/25 09:10:14;;;;;;;;;;;7.90;99.90;;;;;;5038308;28;20408;-82
2022/12/25 09:12:39;;;;;;;;;;;7.90;99.90;;;;;;5034073;28;19929;-82
2022/12/25 09:15:05;;;;;;;;;;;7.90;99.90;;;;;;5023724;28;19929;-82
2022/12/25 09:17:31;;;;;;;;;;;7.90;99.90;;;;;;5035692;28;19963;-82
2022/12/25 09:19:56;;;;;;;;;;;8.00;99.90;;;;;;5037092;28;19929;-82
2022/12/25 09:22:22;;;;;;;;;;;8.00;99.90;;;;;;5034440;28;20373;-82
2022/12/25 09:24:48;;;;;;;;;;;8.00;99.90;;;;;;5033713;28;19988;-82
2022/12/25 09:27:13;;;;;;;;;;;8.00;99.90;;;;;;5033852;28;19929;-82
2022/12/25 09:29:39;;;;;;;;;;;8.10;99.90;;;;;;5036412;28;19976;-82
2022/12/25 09:32:05;;;;;;;;;;;8.00;99.90;;;;;;5036921;28;20251;-82
2022/12/25 09:34:31;;;;;;;;;;;8.10;99.90;;;;;;5035842;28;19951;-82
2022/12/25 09:36:57;;;;;;;;;;;8.10;99.90;;;;;;5037226;28;20435;-82
2022/12/25 09:39:22;;;;;;;;;;;8.10;99.90;;;;;;5033337;28;21318;-83
2022/12/25 09:41:59;;;;;;;;;;;8.20;99.90;;;;;;5035133;28;20007;-82
2022/12/25 09:44:27;;;;;;;;;;;8.20;99.90;;;;;;5031395;28;20408;-82
2022/12/25 09:47:01;;;;;;;;;;;8.20;99.90;;;;;;5020142;28;19929;-82
2022/12/25 09:49:50;;;;;;;;;;;8.20;99.90;;;;;;5035025;28;19929;-82
2022/12/25 09:52:20;;;;;;;;;;;8.30;99.90;;;;;;5022740;28;19936;-82
2022/12/25 09:54:49;;;;;;;;;;;8.30;99.90;;;;;;5036255;28;19925;-82
2022/12/25 09:57:14;;;;;;;;;;;8.30;99.90;;;;;;5033571;28;19978;-83
2022/12/25 09:59:43;;;;;;;;;;;8.30;99.90;;;;;;5018953;28;19941;-82
2022/12/25 10:02:22;;;;;;;;;;;8.30;99.90;;;;;;5035478;28;20431;-80
2022/12/25 10:05:03;;;;;;;;;;;8.40;99.90;;;;;;5029402;28;19976;-80
2022/12/25 10:07:28;;;;;;;;;;;8.40;99.90;;;;;;5035906;28;19980;-80
2022/12/25 10:10:08;;;;;;;;;;;8.40;99.90;;;;;;5034660;28;19936;-80
2022/12/25 10:12:36;;;;;;;;;;;8.30;99.90;;;;;;5034779;28;19991;-81
2022/12/25 10:15:08;;;;;;;;;;;8.40;99.90;;;;;;5034115;28;19933;-81
2022/12/25 10:17:46;;;;;;;;;;;8.40;99.90;;;;;;5018180;28;19940;-81
2022/12/25 10:20:24;;;;;;;;;;;8.40;99.90;;;;;;5018719;28;19933;-81
2022/12/25 10:22:51;;;;;;;;;;;8.40;99.90;;;;;;5035869;28;19940;-81
2022/12/25 10:25:19;;;;;;;;;;;8.40;99.90;;;;;;5035383;28;19936;-80
2022/12/25 10:27:47;;;;;;;;;;;8.40;99.90;;;;;;5033746;28;19968;-81
2022/12/25 10:30:14;;;;;;;;;;;8.40;99.90;;;;;;5035316;28;19931;-80
2022/12/25 10:32:40;;;;;;;;;;;8.40;99.90;;;;;;5037923;28;19995;-81
2022/12/25 10:35:09;;;;;;;;;;;8.40;99.90;;;;;;5021771;28;19925;-83
2022/12/25 10:37:35;;;;;;;;;;;8.50;99.90;;;;;;5037844;28;19941;-84
2022/12/25 10:40:00;;;;;;;;;;;8.50;99.90;;;;;;5021552;28;20396;-83
2022/12/25 10:42:29;;;;;;;;;;;8.50;99.90;;;;;;5023838;28;19929;-84
2022/12/25 10:44:59;;;;;;;;;;;8.50;99.90;;;;;;5037045;28;19948;-83
2022/12/25 10:47:27;;;;;;;;;;;8.60;99.90;;;;;;5039858;28;19964;-83
2022/12/25 10:49:53;;;;;;;;;;;8.60;99.90;;;;;;5039676;28;19935;-83
2022/12/25 10:52:19;;;;;;;;;;;8.70;99.90;;;;;;5040959;28;19964;-81
2022/12/25 10:54:45;;;;;;;;;;;8.70;99.90;;;;;;5038652;28;19925;-81
2022/12/25 10:57:15;;;;;;;;;;;8.70;99.90;;;;;;5034888;28;19941;-80
2022/12/25 10:59:48;;;;;;;;;;;8.70;99.90;;;;;;5021301;28;19956;-81
2022/12/25 11:02:34;;;;;;;;;;;8.70;99.90;;;;;;5039320;28;19929;-81
2022/12/25 11:05:00;;;;;;;;;;;8.70;99.90;;;;;;5037292;28;19925;-81
2022/12/25 11:07:26;;;;;;;;;;;8.70;99.90;;;;;;5039812;28;19929;-81
2022/12/25 11:09:52;;;;;;;;;;;8.70;99.90;;;;;;5004027;28;20020;-81
2022/12/25 11:12:19;;;;;;;;;;;8.70;99.90;;;;;;5040205;28;19997;-80
2022/12/25 11:14:52;;;;;;;;;;;8.70;99.90;;;;;;5036185;28;19925;-80
2022/12/25 11:17:20;;;;;;;;;;;8.70;99.90;;;;;;5038848;28;20039;-80
2022/12/25 11:19:50;;;;;;;;;;;8.70;99.90;;;;;;5032427;28;19930;-80
2022/12/25 11:22:17;;;;;;;;;;;8.70;99.90;;;;;;5034397;28;20376;-81
2022/12/25 11:24:43;;;;;;;;;;;8.80;99.90;;;;;;5038480;28;20200;-80
2022/12/25 11:27:28;;;;;;;;;;;8.80;99.90;;;;;;5022386;28;19925;-81
2022/12/25 11:29:58;;;;;;;;;;;8.90;99.90;;;;;;5023777;28;19925;-81
2022/12/25 11:32:27;;;;;;;;;;;8.90;99.90;;;;;;5037506;28;20879;-81
2022/12/25 11:34:53;;;;;;;;;;;8.90;99.90;;;;;;5039081;28;20091;-81
2022/12/25 11:37:36;;;;;;;;;;;8.90;99.90;;;;;;5039374;28;20403;-81
2022/12/25 11:40:02;;;;;;;;;;;8.90;99.90;;;;;;5023247;28;19980;-81
2022/12/25 11:42:27;;;;;;;;;;;9.00;99.90;;;;;;5018992;28;19929;-80
2022/12/25 11:45:00;;;;;;;;;;;9.00;99.90;;;;;;5034048;28;20126;-81
2022/12/25 11:47:38;;;;;;;;;;;9.00;99.90;;;;;;5033336;28;19936;-81
2022/12/25 11:50:12;;;;;;;;;;;9.00;99.90;;;;;;5026960;28;19929;-81
2022/12/25 11:52:40;;;;;;;;;;;9.00;99.90;;;;;;5049331;28;19929;-81
2022/12/25 11:55:12;;;;;;;;;;;9.00;99.90;;;;;;5036286;28;19964;-81
2022/12/25 11:57:39;;;;;;;;;;;9.00;99.90;;;;;;5036999;28;19960;-81
2022/12/25 12:00:08;;;;;;;;;;;9.00;99.90;;;;;;5037446;28;20428;-81
2022/12/25 12:02:50;;;;;;;;;;;9.00;99.90;;;;;;5035352;28;20547;-81
2022/12/25 12:05:18;;;;;;;;;;;9.00;99.90;;;;;;5036997;28;19933;-80
2022/12/25 12:08:01;;;;;;;;;;;9.00;99.90;;;;;;5030735;28;19929;-81
2022/12/25 12:10:31;;;;;;;;;;;9.00;99.90;;;;;;5030857;28;19930;-82
2022/12/25 12:13:13;;;;;;;;;;;9.00;99.90;;;;;;5031117;28;20404;-81
2022/12/25 12:15:38;;;;;;;;;;;9.00;99.90;;;;;;5035397;28;19926;-81
2022/12/25 12:18:08;;;;;;;;;;;9.00;99.90;;;;;;5032152;28;19932;-81
2022/12/25 12:20:34;;;;;;;;;;;9.00;99.90;;;;;;5014121;28;19933;-81
2022/12/25 12:23:02;;;;;;;;;;;9.00;99.90;;;;;;5032474;28;19929;-81
2022/12/25 12:25:28;;;;;;;;;;;9.00;99.90;;;;;;5032445;28;19964;-81
2022/12/25 12:27:56;;;;;;;;;;;9.00;99.90;;;;;;5032038;28;19925;-81
2022/12/25 12:30:33;;;;;;;;;;;9.00;99.90;;;;;;5029122;28;19968;-81
2022/12/25 12:33:00;;;;;;;;;;;9.00;99.90;;;;;;5029136;28;19933;-81
2022/12/25 12:35:31;;;;;;;;;;;9.00;99.90;;;;;;5030923;28;19925;-81
2022/12/25 12:37:56;;;;;;;;;;;9.00;99.90;;;;;;5031376;28;19929;-81
2022/12/25 12:40:22;;;;;;;;;;;9.00;99.90;;;;;;5032178;28;19975;-80
2022/12/25 12:42:49;;;;;;;;;;;9.00;99.90;;;;;;5031990;28;19937;-81
2022/12/25 12:45:16;;;;;;;;;;;9.00;99.90;;;;;;5030742;28;20051;-81
2022/12/25 12:47:45;;;;;;;;;;;9.10;99.90;;;;;;5029787;28;19993;-81
2022/12/25 12:50:29;;;;;;;;;;;9.00;99.90;;;;;;5033858;28;19941;-80
2022/12/25 12:52:55;;;;;;;;;;;9.00;99.90;;;;;;5033120;28;19929;-80
2022/12/25 12:55:28;;;;;;;;;;;9.00;99.90;;;;;;5027796;28;19944;-81
2022/12/25 12:58:01;;;;;;;;;;;9.00;99.90;;;;;;5016484;28;19925;-81
2022/12/25 13:00:53;;;;;;;;;;;9.00;99.90;;;;;;5015397;28;20373;-81
2022/12/25 13:03:19;;;;;;;;;;;9.00;99.90;;;;;;5026490;28;19940;-80
2022/12/25 13:05:47;;;;;;;;;;;9.00;99.90;;;;;;5028233;28;19925;-81
2022/12/25 13:08:12;;;;;;;;;;;9.00;99.90;;;;;;5033056;28;20420;-81
2022/12/25 13:10:42;;;;;;;;;;;9.00;99.90;;;;;;5031301;28;19972;-80
2022/12/25 13:13:17;;;;;;;;;;;9.00;99.90;;;;;;5031659;28;19985;-81
2022/12/25 13:15:44;;;;;;;;;;;9.00;99.90;;;;;;5028219;28;19929;-81
2022/12/25 13:18:11;;;;;;;;;;;8.90;99.90;;;;;;5030304;28;19968;-80
2022/12/25 13:20:55;;;;;;;;;;;8.90;99.90;;;;;;5031319;28;19980;-82
2022/12/25 13:23:25;;;;;;;;;;;9.00;99.90;;;;;;5030144;28;19931;-82
2022/12/25 13:25:58;;;;;;;;;;;8.90;99.90;;;;;;5028468;28;20269;-82
2022/12/25 13:28:28;;;;;;;;;;;8.90;99.90;;;;;;5032970;28;19929;-82
2022/12/25 13:31:13;;;;;;;;;;;8.90;99.90;;;;;;5028292;28;19933;-82
2022/12/25 13:33:39;;;;;;;;;;;8.90;99.90;;;;;;5032113;28;19925;-81
2022/12/25 13:36:09;;;;;;;;;;;8.90;99.90;;;;;;5027784;28;19948;-81
2022/12/25 13:38:35;;;;;;;;;;;8.90;99.90;;;;;;5029978;28;19925;-81
2022/12/25 13:43:46;;;;;;;;;;;8.90;99.90;;;;;;5031048;28;20354;-82
2022/12/25 13:46:12;;;;;;;;;;;8.90;99.90;;;;;;5030310;28;19929;-82
2022/12/25 13:48:38;;;;;;;;;;;8.90;99.90;;;;;;5030710;28;19934;-82
2022/12/25 13:51:04;;;;;;;;;;;8.80;99.90;;;;;;5030572;28;19936;-81
2022/12/25 13:53:29;;;;;;;;;;;8.80;99.90;;;;;;5030111;28;19937;-81
2022/12/25 13:55:57;;;;;;;;;;;8.80;99.90;;;;;;5031289;28;20145;-81
2022/12/25 13:58:22;;;;;;;;;;;8.80;99.90;;;;;;5030109;28;19925;-81
2022/12/25 14:00:49;;;;;;;;;;;8.80;99.90;;;;;;5032581;28;19933;-80
2022/12/25 14:03:20;;;;;;;;;;;8.80;99.90;;;;;;5031671;28;19929;-80
2022/12/25 14:05:53;;;;;;;;;;;8.80;99.90;;;;;;5033574;28;20008;-80
2022/12/25 14:08:21;;;;;;;;;;;8.80;99.90;;;;;;5038498;28;19936;-78
2022/12/25 14:10:48;;;;;;;;;;;8.80;99.90;;;;;;5041608;28;19925;-78
2022/12/25 14:13:14;;;;;;;;;;;8.80;99.90;;;;;;5054592;28;19971;-71
2022/12/25 14:15:40;;;;;;;;;;;8.80;99.90;;;;;;5035877;28;19944;-71
2022/12/25 14:18:12;;;;;;;;;;;8.80;99.90;;;;;;5029267;28;20030;-71
2022/12/25 14:20:53;;;;;;;;;;;8.80;99.90;;;;;;5033816;28;19937;-71
2022/12/25 14:23:18;;;;;;;;;;;8.90;99.90;;;;;;5033853;28;19932;-71
2022/12/25 14:25:45;;;;;;;;;;;8.90;99.90;;;;;;5013004;28;19925;-71
2022/12/25 14:28:25;;;;;;;;;;;8.80;99.90;;;;;;5032081;28;19979;-71
2022/12/25 14:30:51;;;;;;;;;;;8.80;99.90;;;;;;5030921;28;19944;-71
2022/12/25 14:33:19;;;;;;;;;;;8.80;99.90;;;;;;5034060;28;20039;-71
2022/12/25 14:35:46;;;;;;;;;;;8.80;99.90;;;;;;5034403;28;19925;-71
2022/12/25 14:38:34;;;;;;;;;;;8.80;99.90;;;;;;5033385;28;19961;-71
2022/12/25 14:41:04;;;;;;;;;;;8.80;99.90;;;;;;5032990;28;19986;-71
2022/12/25 14:43:31;;;;;;;;;;;8.80;99.90;;;;;;5032297;28;19952;-71
2022/12/25 14:46:00;;;;;;;;;;;8.80;99.90;;;;;;5034013;28;20516;-72
2022/12/25 14:48:28;;;;;;;;;;;8.80;99.90;;;;;;5032443;28;20072;-71
2022/12/25 14:51:02;;;;;;;;;;;8.70;99.90;;;;;;5033795;28;19976;-71
2022/12/25 14:53:33;;;;;;;;;;;8.70;99.90;;;;;;5031004;28;19929;-71
2022/12/25 14:55:59;;;;;;;;;;;8.80;99.90;;;;;;5034960;28;19926;-71
2022/12/25 14:58:26;;;;;;;;;;;8.70;99.90;;;;;;5037593;28;20215;-72
2022/12/25 15:00:56;;;;;;;;;;;8.70;99.90;;;;;;5035276;28;20361;-71
2022/12/25 15:03:25;;;;;;;;;;;8.70;99.90;;;;;;5042668;28;19987;-71
2022/12/25 15:05:58;;;;;;;;;;;8.70;99.90;;;;;;5040162;28;19925;-72
2022/12/25 15:08:24;;;;;;;;;;;8.70;99.90;;;;;;5041960;28;19929;-72
2022/12/25 15:10:49;;;;;;;;;;;8.70;99.90;;;;;;5040282;28;19968;-72
2022/12/25 15:13:18;;;;;;;;;;;8.70;99.90;;;;;;5039630;28;19984;-72
2022/12/25 15:15:52;;;;;;;;;;;8.70;99.90;;;;;;5037181;28;19929;-72
2022/12/25 15:18:18;;;;;;;;;;;8.70;99.90;;;;;;5035833;28;19933;-72
2022/12/25 15:20:44;;;;;;;;;;;8.70;99.90;;;;;;5039182;28;19940;-72
2022/12/25 15:23:13;;;;;;;;;;;8.70;99.90;;;;;;5038808;28;19929;-72
2022/12/25 15:25:38;;;;;;;;;;;8.70;99.90;;;;;;5038482;28;19925;-72
2022/12/25 15:28:05;;;;;;;;;;;8.60;99.90;;;;;;5037522;28;19936;-73
2022/12/25 15:30:34;;;;;;;;;;;8.60;99.90;;;;;;5038447;28;19941;-74
2022/12/25 15:32:59;;;;;;;;;;;8.70;99.90;;;;;;5034643;28;19979;-74
2022/12/25 15:35:25;;;;;;;;;;;8.60;99.90;;;;;;5037572;28;19929;-74
2022/12/25 15:37:51;;;;;;;;;;;8.70;99.90;;;;;;5035514;28;19925;-74
2022/12/25 15:40:16;;;;;;;;;;;8.70;99.90;;;;;;5036349;28;19925;-74
2022/12/25 15:42:42;;;;;;;;;;;8.60;99.90;;;;;;5038208;28;19929;-74
2022/12/25 15:45:19;;;;;;;;;;;8.70;99.90;;;;;;5030976;28;19933;-74
2022/12/25 15:47:45;;;;;;;;;;;8.60;99.90;;;;;;5036329;28;19996;-74
2022/12/25 15:50:10;;;;;;;;;;;8.60;99.90;;;;;;5033476;28;19995;-74
2022/12/25 15:52:36;;;;;;;;;;;8.70;99.90;;;;;;5037503;28;19925;-74
2022/12/25 15:55:02;;;;;;;;;;;8.60;99.90;;;;;;5038232;28;19925;-74
2022/12/25 15:57:27;;;;;;;;;;;8.60;99.90;;;;;;5036780;28;19929;-74
2022/12/25 15:59:53;;;;;;;;;;;8.60;99.90;;;;;;5037454;28;19929;-74
2022/12/25 16:02:19;;;;;;;;;;;8.60;99.90;;;;;;5035610;28;19925;-73
2022/12/25 16:04:44;;;;;;;;;;;8.60;99.90;;;;;;5033744;28;19932;-74
2022/12/25 16:07:20;;;;;;;;;;;8.60;99.90;;;;;;5036309;28;19925;-73
2022/12/25 16:09:46;;;;;;;;;;;8.60;99.90;;;;;;5036640;28;19929;-73
2022/12/25 16:12:11;;;;;;;;;;;8.60;99.90;;;;;;5034834;28;19925;-74
2022/12/25 16:14:37;;;;;;;;;;;8.60;99.90;;;;;;5035502;28;19929;-73
2022/12/25 16:17:03;;;;;;;;;;;8.60;99.90;;;;;;5034481;28;19933;-74